createdAt,value
2023-02-16T00:01:25.940Z,2.80
2023-02-16T00:03:55.301Z,3.05
2023-02-16T00:06:23.309Z,3.47
2023-02-16T00:08:53.972Z,2.85
2023-02-16T00:11:51.527Z,3.15
2023-02-16T00:14:22.604Z,3.10
2023-02-16T00:16:51.107Z,3.35
2023-02-16T00:19:21.949Z,2.30
2023-02-16T00:21:51.453Z,3.10
2023-02-16T00:24:21.226Z,2.67
2023-02-16T00:26:49.573Z,3.20
2023-02-16T00:29:21.585Z,3.30
2023-02-16T00:31:50.387Z,3.40
2023-02-16T00:34:31.008Z,2.57
2023-02-16T00:37:00.650Z,2.70
2023-02-16T00:39:30.458Z,3.20
2023-02-16T00:42:00.733Z,2.85
2023-02-16T00:44:33.875Z,3.60
2023-02-16T00:47:04.429Z,2.80
2023-02-16T00:49:36.008Z,3.92
2023-02-16T00:52:10.749Z,4.40
2023-02-16T00:54:40.129Z,3.40
2023-02-16T00:57:09.839Z,4.20
2023-02-16T00:59:37.742Z,3.60
2023-02-16T01:02:05.822Z,3.40
2023-02-16T01:04:33.811Z,4.22
2023-02-16T01:07:24.920Z,4.00
2023-02-16T01:10:11.521Z,5.18
2023-02-16T01:12:39.714Z,4.72
2023-02-16T01:15:13.706Z,4.53
2023-02-16T01:17:41.917Z,4.50
2023-02-16T01:20:15.903Z,5.45
2023-02-16T01:22:43.745Z,4.93
2023-02-16T01:25:13.223Z,4.25
2023-02-16T01:27:41.742Z,4.10
2023-02-16T01:30:16.254Z,5.55
2023-02-16T01:32:47.429Z,4.57
2023-02-16T01:35:15.423Z,6.07
2023-02-16T01:37:45.311Z,5.18
2023-02-16T01:40:37.854Z,5.10
2023-02-16T01:43:13.615Z,5.07
2023-02-16T01:45:45.065Z,5.32
2023-02-16T01:48:22.358Z,5.10
2023-02-16T01:50:56.932Z,5.28
2023-02-16T01:53:31.835Z,5.50
2023-02-16T01:56:05.351Z,5.30
2023-02-16T01:58:40.545Z,5.07
2023-02-16T02:01:40.198Z,4.90
2023-02-16T02:04:35.104Z,4.97
2023-02-16T02:07:03.022Z,4.50
2023-02-16T02:09:40.210Z,4.78
2023-02-16T02:12:19.507Z,5.68
2023-02-16T02:14:48.996Z,4.07
2023-02-16T02:17:21.009Z,4.95
2023-02-16T02:20:03.787Z,5.00
2023-02-16T02:23:20.028Z,4.55
2023-02-16T02:26:14.332Z,5.15
2023-02-16T02:28:54.511Z,5.03
2023-02-16T02:31:34.257Z,5.28
2023-02-16T02:34:12.037Z,4.75
2023-02-16T02:36:46.359Z,4.85
2023-02-16T02:39:27.285Z,4.93
2023-02-16T02:42:04.799Z,5.40
2023-02-16T02:44:47.224Z,4.65
2023-02-16T02:47:15.469Z,4.82
2023-02-16T02:49:50.532Z,5.63
2023-02-16T02:52:18.884Z,5.15
2023-02-16T02:55:06.014Z,5.28
2023-02-16T02:57:57.612Z,6.13
2023-02-16T03:00:44.108Z,5.65
2023-02-16T03:03:17.040Z,5.32
2023-02-16T03:05:49.396Z,5.93
2023-02-16T03:08:22.731Z,6.30
2023-02-16T03:11:11.560Z,6.22
2023-02-16T03:13:42.693Z,5.90
2023-02-16T03:16:15.212Z,5.22
2023-02-16T03:19:02.411Z,5.50
2023-02-16T03:21:48.326Z,6.47
2023-02-16T03:24:39.244Z,5.60
2023-02-16T03:27:27.321Z,5.95
2023-02-16T03:29:57.793Z,6.05
2023-02-16T03:32:27.124Z,6.95
2023-02-16T03:34:55.106Z,6.40
2023-02-16T03:37:23.081Z,5.80
2023-02-16T03:40:08.751Z,6.75
2023-02-16T03:42:36.636Z,5.22
2023-02-16T03:45:04.866Z,6.75
2023-02-16T03:47:34.104Z,5.65
2023-02-16T03:50:01.981Z,6.70
2023-02-16T03:52:29.835Z,6.50
2023-02-16T03:54:58.064Z,5.35
2023-02-16T03:57:26.036Z,5.80
2023-02-16T03:59:54.188Z,5.55
2023-02-16T04:02:22.522Z,5.13
2023-02-16T04:04:51.759Z,5.38
2023-02-16T04:07:19.653Z,5.65
2023-02-16T04:09:47.527Z,6.32
2023-02-16T04:12:32.924Z,6.35
2023-02-16T04:15:00.842Z,6.28
2023-02-16T04:17:28.666Z,6.03
2023-02-16T04:19:57.943Z,6.70
2023-02-16T04:22:26.385Z,7.05
2023-02-16T04:24:54.313Z,5.93
2023-02-16T04:27:22.210Z,5.25
2023-02-16T04:29:50.112Z,6.30
2023-02-16T04:32:18.473Z,6.10
2023-02-16T04:34:46.367Z,7.25
2023-02-16T04:37:15.736Z,6.35
2023-02-16T04:39:43.860Z,5.20
2023-02-16T04:42:11.732Z,5.72
2023-02-16T04:44:39.602Z,6.43
2023-02-16T04:47:07.662Z,7.45
2023-02-16T04:49:35.656Z,6.55
2023-02-16T04:52:04.318Z,5.35
2023-02-16T04:54:34.319Z,6.70
2023-02-16T04:57:02.254Z,6.32
2023-02-16T04:59:30.208Z,6.22
2023-02-16T05:01:58.618Z,5.35
2023-02-16T05:04:27.243Z,6.13
2023-02-16T05:06:55.506Z,6.13
2023-02-16T05:09:23.391Z,6.13
2023-02-16T05:12:10.255Z,6.18
2023-02-16T05:14:45.095Z,5.40
2023-02-16T05:17:15.512Z,5.90
2023-02-16T05:19:45.606Z,6.20
2023-02-16T05:22:14.349Z,6.55
2023-02-16T05:24:43.080Z,7.35
2023-02-16T05:27:14.282Z,6.90
2023-02-16T05:29:42.273Z,7.20
2023-02-16T05:32:10.711Z,6.88
2023-02-16T05:34:39.389Z,7.50
2023-02-16T05:37:07.339Z,7.18
2023-02-16T05:39:35.225Z,7.18
2023-02-16T05:42:03.340Z,7.65
2023-02-16T05:44:32.593Z,7.53
2023-02-16T05:47:00.605Z,6.82
2023-02-16T05:49:28.531Z,7.47
2023-02-16T05:51:56.399Z,7.00
2023-02-16T05:54:24.387Z,8.23
2023-02-16T05:56:53.689Z,7.90
2023-02-16T05:59:22.282Z,7.68
2023-02-16T06:01:52.485Z,7.75
2023-02-16T06:04:21.621Z,9.85
2023-02-16T06:06:49.961Z,9.52
2023-02-16T06:09:18.052Z,7.72
2023-02-16T06:11:46.077Z,9.55
2023-02-16T06:14:17.053Z,10.00
2023-02-16T06:16:47.250Z,9.20
2023-02-16T06:19:18.786Z,9.85
2023-02-16T06:21:46.998Z,9.73
2023-02-16T06:24:15.858Z,8.98
2023-02-16T06:26:43.778Z,10.18
2023-02-16T06:29:12.079Z,10.00
2023-02-16T06:31:40.048Z,10.02
2023-02-16T06:34:08.105Z,10.25
2023-02-16T06:36:37.270Z,9.10
2023-02-16T06:39:05.264Z,10.00
2023-02-16T06:41:35.731Z,11.80
2023-02-16T06:44:06.327Z,9.70
2023-02-16T06:46:35.084Z,9.63
2023-02-16T06:49:03.036Z,9.45
2023-02-16T06:51:38.190Z,8.73
2023-02-16T06:54:06.271Z,9.68
2023-02-16T06:56:35.826Z,9.95
2023-02-16T06:59:04.923Z,9.70
2023-02-16T07:01:33.014Z,10.40
2023-02-16T07:04:01.073Z,9.93
2023-02-16T07:06:30.809Z,8.07
2023-02-16T07:09:18.367Z,9.00
2023-02-16T07:12:05.533Z,9.23
2023-02-16T07:14:52.297Z,8.65
2023-02-16T07:17:38.759Z,8.00
2023-02-16T07:20:08.242Z,8.25
2023-02-16T07:22:36.215Z,6.47
2023-02-16T07:25:05.717Z,8.75
2023-02-16T07:27:33.767Z,8.07
2023-02-16T07:30:01.783Z,7.13
2023-02-16T07:32:31.952Z,7.30
2023-02-16T07:34:59.847Z,8.83
2023-02-16T07:37:27.820Z,7.70
2023-02-16T07:39:55.759Z,5.45
2023-02-16T07:42:24.920Z,7.90
2023-02-16T07:44:53.268Z,7.00
2023-02-16T07:47:21.191Z,7.43
2023-02-16T07:49:49.081Z,6.53
2023-02-16T07:52:16.973Z,7.13
2023-02-16T07:54:44.844Z,5.90
2023-02-16T07:57:12.715Z,6.30
2023-02-16T07:59:42.246Z,6.53
2023-02-16T08:02:16.649Z,6.40
2023-02-16T08:04:44.795Z,7.40
2023-02-16T08:07:13.292Z,7.00
2023-02-16T08:09:41.332Z,8.00
2023-02-16T08:12:10.883Z,7.00
2023-02-16T08:14:39.573Z,6.97
2023-02-16T08:17:09.427Z,8.00
2023-02-16T08:19:38.029Z,7.93
2023-02-16T08:22:06.566Z,8.13
2023-02-16T08:24:35.425Z,6.97
2023-02-16T08:27:05.274Z,7.00
2023-02-16T08:29:33.594Z,7.60
2023-02-16T08:32:04.193Z,7.83
2023-02-16T08:34:33.686Z,7.97
2023-02-16T08:37:04.774Z,10.10
2023-02-16T08:39:35.058Z,8.50
2023-02-16T08:42:03.815Z,7.83
2023-02-16T08:44:31.984Z,7.30
2023-02-16T08:47:01.388Z,8.97
2023-02-16T08:49:29.633Z,7.10
2023-02-16T08:52:01.429Z,6.83
2023-02-16T08:54:32.286Z,8.03
2023-02-16T08:57:02.788Z,7.90
2023-02-16T08:59:31.463Z,7.23
2023-02-16T09:02:00.181Z,7.40
2023-02-16T09:04:30.419Z,6.10
2023-02-16T09:07:00.433Z,6.67
2023-02-16T09:09:28.660Z,6.90
2023-02-16T09:11:57.640Z,6.33
2023-02-16T09:14:25.564Z,7.20
2023-02-16T09:16:53.683Z,6.17
2023-02-16T09:19:22.539Z,6.10
2023-02-16T09:21:51.987Z,6.80
2023-02-16T09:24:21.933Z,6.50
2023-02-16T09:26:49.784Z,6.70
2023-02-16T09:29:18.297Z,6.13
2023-02-16T09:31:46.302Z,6.23
2023-02-16T09:34:18.904Z,6.70
2023-02-16T09:36:48.197Z,6.43
2023-02-16T09:39:17.333Z,5.20
2023-02-16T09:42:03.425Z,7.53
2023-02-16T09:44:42.116Z,5.10
2023-02-16T09:47:17.582Z,5.50
2023-02-16T09:49:46.754Z,5.53
2023-02-16T09:52:20.496Z,5.57
2023-02-16T09:54:52.074Z,5.50
2023-02-16T09:57:34.186Z,5.17
2023-02-16T10:00:07.198Z,4.97
2023-02-16T10:02:43.871Z,5.10
2023-02-16T10:05:32.539Z,6.17
2023-02-16T10:08:04.357Z,4.97
2023-02-16T10:10:40.349Z,5.83
2023-02-16T10:13:17.874Z,5.43
2023-02-16T10:15:47.008Z,6.43
2023-02-16T10:18:24.141Z,6.77
2023-02-16T10:20:56.603Z,5.30
2023-02-16T10:23:33.901Z,7.00
2023-02-16T10:26:07.064Z,6.80
2023-02-16T10:28:43.984Z,7.07
2023-02-16T10:31:17.247Z,5.57
2023-02-16T10:33:47.037Z,6.53
2023-02-16T10:36:24.748Z,5.53
2023-02-16T10:38:58.659Z,6.20
2023-02-16T10:41:35.483Z,6.10
2023-02-16T10:44:12.752Z,6.30
2023-02-16T10:47:30.156Z,6.43
2023-02-16T10:50:04.381Z,9.27
2023-02-16T10:52:40.759Z,7.43
2023-02-16T10:55:10.122Z,5.70
2023-02-16T10:57:41.263Z,6.63
2023-02-16T11:00:17.607Z,6.30
2023-02-16T11:03:01.179Z,6.77
2023-02-16T11:08:54.122Z,5.60
2023-02-16T11:18:49.736Z,5.70
2023-02-16T11:21:19.570Z,6.13
2023-02-16T11:23:59.567Z,5.20
2023-02-16T11:26:28.894Z,6.37
2023-02-16T11:29:18.601Z,6.30
2023-02-16T11:31:47.263Z,6.70
2023-02-16T11:34:31.253Z,6.93
2023-02-16T11:37:06.355Z,5.60
2023-02-16T11:39:39.519Z,5.47
2023-02-16T11:42:10.354Z,5.33
2023-02-16T11:44:41.813Z,6.37
2023-02-16T11:47:24.839Z,6.00
2023-02-16T11:50:14.558Z,7.10
2023-02-16T11:52:49.577Z,6.80
2023-02-16T11:55:27.007Z,6.60
2023-02-16T11:58:13.748Z,7.37
2023-02-16T12:00:57.554Z,6.77
2023-02-16T12:04:19.170Z,7.43
2023-02-16T12:07:41.286Z,7.83
2023-02-16T12:10:12.981Z,7.70
2023-02-16T12:13:09.336Z,9.93
2023-02-16T12:15:48.448Z,10.63
2023-02-16T12:18:59.958Z,8.40
2023-02-16T12:21:59.096Z,9.90
2023-02-16T12:24:43.290Z,9.50
2023-02-16T12:27:31.428Z,9.03
2023-02-16T12:30:23.461Z,7.90
2023-02-16T12:33:26.143Z,9.00
2023-02-16T12:36:28.206Z,9.20
2023-02-16T12:39:02.810Z,8.23
2023-02-16T12:41:47.306Z,8.67
2023-02-16T12:44:22.104Z,9.00
2023-02-16T12:47:02.904Z,9.47
2023-02-16T12:50:02.243Z,8.67
2023-02-16T12:52:41.969Z,8.20
2023-02-16T12:55:32.702Z,8.53
2023-02-16T12:58:19.617Z,8.53
2023-02-16T13:01:13.931Z,9.50
2023-02-16T13:03:50.412Z,8.43
2023-02-16T13:07:00.113Z,7.87
2023-02-16T13:09:48.788Z,8.40
2023-02-16T13:12:54.192Z,8.00
2023-02-16T13:19:51.028Z,8.33
2023-02-16T13:22:42.176Z,7.07
2023-02-16T13:29:23.792Z,7.50
2023-02-16T13:32:20.165Z,7.37
2023-02-16T13:35:25.075Z,6.30
2023-02-16T13:38:32.579Z,6.97
2023-02-16T13:44:52.169Z,5.47
2023-02-16T13:47:33.338Z,6.27
2023-02-16T13:50:36.005Z,5.97
2023-02-16T13:53:18.500Z,6.50
2023-02-16T13:55:52.775Z,6.17
2023-02-16T13:58:32.784Z,5.93
2023-02-16T14:01:42.062Z,5.67
2023-02-16T14:04:54.853Z,6.23
2023-02-16T14:07:35.929Z,5.97
2023-02-16T14:10:10.028Z,5.90
2023-02-16T14:12:43.517Z,5.97
2023-02-16T14:16:08.619Z,6.30
2023-02-16T14:19:06.052Z,6.67
2023-02-16T14:21:55.400Z,5.30
2023-02-16T14:25:00.702Z,5.87
2023-02-16T14:28:14.655Z,5.80
2023-02-16T14:30:50.953Z,5.43
2023-02-16T14:33:49.899Z,6.10
2023-02-16T14:36:27.008Z,5.70
2023-02-16T14:40:07.791Z,5.40
2023-02-16T14:42:59.621Z,5.87
2023-02-16T14:46:17.553Z,4.60
2023-02-16T14:49:38.026Z,5.23
2023-02-16T14:52:48.869Z,5.67
2023-02-16T14:55:47.484Z,7.20
2023-02-16T14:59:42.297Z,5.50
2023-02-16T15:02:31.455Z,5.50
2023-02-16T15:05:19.208Z,5.77
2023-02-16T15:07:50.535Z,8.30
2023-02-16T15:11:12.642Z,5.70
2023-02-16T15:14:02.542Z,6.83
2023-02-16T15:16:52.345Z,6.83
2023-02-16T15:19:31.131Z,5.77
2023-02-16T15:22:10.553Z,4.63
2023-02-16T15:24:38.493Z,4.10
2023-02-16T15:27:06.552Z,4.80
2023-02-16T15:29:34.721Z,5.87
2023-02-16T15:32:08.737Z,3.60
2023-02-16T15:34:39.441Z,4.30
2023-02-16T15:37:43.572Z,4.33
2023-02-16T15:40:56.687Z,3.70
2023-02-16T15:43:40.117Z,5.30
2023-02-16T15:46:16.984Z,5.23
2023-02-16T15:49:43.250Z,5.43
2023-02-16T15:52:59.618Z,4.83
2023-02-16T16:00:30.969Z,5.67
2023-02-16T16:03:04.240Z,4.53
2023-02-16T16:05:44.529Z,4.80
2023-02-16T16:08:27.468Z,5.93
2023-02-16T16:10:56.943Z,6.10
2023-02-16T16:13:27.350Z,6.60
2023-02-16T16:16:01.597Z,7.03
2023-02-16T16:18:46.205Z,6.50
2023-02-16T16:21:21.337Z,7.60
2023-02-16T16:24:03.461Z,7.50
2023-02-16T16:26:35.009Z,8.70
2023-02-16T16:29:03.490Z,9.27
2023-02-16T16:31:35.410Z,8.87
2023-02-16T16:34:12.475Z,10.60
2023-02-16T16:36:59.616Z,9.93
2023-02-16T16:39:32.192Z,9.27
2023-02-16T16:42:21.834Z,11.53
2023-02-16T16:45:02.064Z,10.43
2023-02-16T16:47:40.686Z,9.10
2023-02-16T16:50:33.153Z,8.70
2023-02-16T16:53:01.809Z,9.60
2023-02-16T16:55:35.733Z,10.20
2023-02-16T16:58:08.942Z,10.93
2023-02-16T17:00:44.607Z,9.63
2023-02-16T17:03:15.723Z,10.60
2023-02-16T17:05:50.183Z,9.80
2023-02-16T17:08:20.160Z,10.80
2023-02-16T17:10:49.561Z,10.30
2023-02-16T17:13:21.484Z,9.10
2023-02-16T17:15:53.582Z,12.10
2023-02-16T17:18:55.014Z,12.97
2023-02-16T17:21:23.442Z,10.27
2023-02-16T17:23:53.336Z,12.43
2023-02-16T17:26:25.779Z,10.03
2023-02-16T17:28:55.936Z,10.67
2023-02-16T17:31:38.739Z,11.20
2023-02-16T17:34:21.064Z,10.80
2023-02-16T17:36:49.298Z,12.70
2023-02-16T17:39:27.695Z,11.33
2023-02-16T17:42:47.339Z,10.20
2023-02-16T17:45:28.766Z,11.90
2023-02-16T17:47:58.730Z,10.80
2023-02-16T17:50:27.051Z,10.57
2023-02-16T17:52:57.185Z,12.13
2023-02-16T17:55:25.238Z,11.00
2023-02-16T17:57:53.111Z,11.13
2023-02-16T18:00:23.563Z,11.27
2023-02-16T18:02:51.402Z,12.77
2023-02-16T18:05:19.273Z,11.50
2023-02-16T18:07:47.137Z,10.20
2023-02-16T18:10:21.770Z,9.97
2023-02-16T18:12:49.602Z,10.27
2023-02-16T18:15:17.961Z,9.67
2023-02-16T18:17:47.117Z,10.30
2023-02-16T18:20:16.416Z,10.90
2023-02-16T18:22:44.259Z,10.87
2023-02-16T18:25:12.216Z,11.23
2023-02-16T18:27:40.062Z,12.30
2023-02-16T18:30:09.932Z,9.50
2023-02-16T18:32:38.421Z,11.90
2023-02-16T18:35:07.926Z,10.80
2023-02-16T18:37:36.617Z,9.40
2023-02-16T18:40:06.357Z,10.20
2023-02-16T18:42:34.346Z,10.23
2023-02-16T18:45:02.203Z,9.67
2023-02-16T18:47:30.652Z,9.67
2023-02-16T18:49:58.639Z,10.30
2023-02-16T18:52:27.882Z,9.13
2023-02-16T18:54:55.776Z,9.60
2023-02-16T18:57:23.695Z,9.47
2023-02-16T18:59:51.801Z,10.70
2023-02-16T19:02:19.782Z,9.90
2023-02-16T19:04:47.935Z,11.43
2023-02-16T19:07:16.008Z,9.10
2023-02-16T19:09:45.237Z,9.17
2023-02-16T19:12:13.312Z,9.40
2023-02-16T19:14:41.346Z,9.30
2023-02-16T19:17:09.597Z,10.00
2023-02-16T19:19:38.456Z,9.50
2023-02-16T19:22:06.468Z,9.57
2023-02-16T19:24:34.921Z,10.70
2023-02-16T19:27:04.392Z,9.70
2023-02-16T19:29:32.383Z,9.80
2023-02-16T19:32:00.444Z,9.40
2023-02-16T19:34:28.537Z,9.20
2023-02-16T19:36:56.510Z,9.20
2023-02-16T19:39:24.388Z,9.90
2023-02-16T19:41:52.678Z,9.70
2023-02-16T19:44:22.073Z,9.57
2023-02-16T19:46:49.912Z,11.70
2023-02-16T19:49:18.015Z,10.03
2023-02-16T19:51:47.627Z,9.37
2023-02-16T19:54:15.894Z,11.17
2023-02-16T19:56:43.750Z,13.23
2023-02-16T19:59:11.740Z,12.13
2023-02-16T20:01:41.106Z,10.13
2023-02-16T20:04:09.251Z,9.77
2023-02-16T20:06:39.201Z,10.70
2023-02-16T20:09:07.264Z,11.20
2023-02-16T20:11:35.854Z,9.30
2023-02-16T20:14:03.746Z,11.37
2023-02-16T20:16:32.103Z,12.90
2023-02-16T20:19:01.450Z,14.10
2023-02-16T20:21:30.771Z,12.53
2023-02-16T20:24:01.048Z,11.07
2023-02-16T20:26:32.945Z,12.87
2023-02-16T20:29:02.311Z,10.67
2023-02-16T20:31:33.308Z,11.30
2023-02-16T20:34:03.282Z,11.90
2023-02-16T20:36:31.643Z,12.07
2023-02-16T20:39:00.012Z,12.87
2023-02-16T20:41:27.847Z,11.30
2023-02-16T20:43:56.252Z,9.47
2023-02-16T20:46:24.872Z,10.27
2023-02-16T20:48:53.964Z,10.37
2023-02-16T20:51:23.539Z,10.87
2023-02-16T20:53:51.562Z,13.97
2023-02-16T20:56:21.728Z,9.37
2023-02-16T20:58:50.816Z,11.30
2023-02-16T21:01:22.267Z,14.20
2023-02-16T21:03:50.805Z,13.37
2023-02-16T21:06:19.546Z,12.33
2023-02-16T21:08:49.149Z,10.63
2023-02-16T21:11:20.033Z,9.60
2023-02-16T21:13:48.586Z,9.17
2023-02-16T21:16:16.745Z,10.07
2023-02-16T21:18:45.328Z,12.33
2023-02-16T21:21:15.641Z,11.50
2023-02-16T21:23:44.507Z,10.20
2023-02-16T21:26:13.880Z,9.73
2023-02-16T21:28:42.260Z,9.97
2023-02-16T21:31:12.499Z,9.50
2023-02-16T21:33:41.035Z,9.67
2023-02-16T21:36:11.922Z,9.20
2023-02-16T21:38:41.199Z,9.20
2023-02-16T21:41:27.509Z,10.17
2023-02-16T21:44:00.647Z,10.70
2023-02-16T21:46:30.781Z,9.17
2023-02-16T21:48:58.040Z,9.63
2023-02-16T21:51:28.264Z,8.37
2023-02-16T21:53:56.869Z,9.37
2023-02-16T21:56:30.742Z,8.00
2023-02-16T21:59:00.849Z,10.40
2023-02-16T22:01:30.332Z,9.23
2023-02-16T22:04:00.310Z,8.07
2023-02-16T22:06:30.119Z,9.23
2023-02-16T22:08:58.012Z,8.10
2023-02-16T22:11:26.201Z,9.02
2023-02-16T22:13:55.880Z,8.37
2023-02-16T22:16:26.587Z,9.80
2023-02-16T22:18:57.651Z,6.97
2023-02-16T22:21:25.717Z,7.27
2023-02-16T22:23:53.890Z,8.43
2023-02-16T22:26:24.375Z,6.90
2023-02-16T22:28:53.142Z,8.50
2023-02-16T22:31:22.870Z,7.60
2023-02-16T22:34:00.627Z,7.93
2023-02-16T22:36:28.954Z,6.60
2023-02-16T22:38:57.273Z,7.70
2023-02-16T22:41:26.010Z,6.67
2023-02-16T22:43:54.878Z,6.60
2023-02-16T22:46:24.227Z,9.03
2023-02-16T22:48:52.404Z,7.90
2023-02-16T22:51:29.179Z,7.17
2023-02-16T22:53:58.090Z,7.93
2023-02-16T22:56:26.868Z,7.40
2023-02-16T22:58:57.677Z,6.83
2023-02-16T23:01:27.280Z,7.20
2023-02-16T23:03:57.513Z,6.80
2023-02-16T23:06:28.677Z,7.53
2023-02-16T23:08:58.874Z,6.30
2023-02-16T23:11:27.706Z,6.77
2023-02-16T23:13:55.734Z,7.30
2023-02-16T23:16:25.347Z,7.00
2023-02-16T23:18:55.196Z,7.23
2023-02-16T23:21:25.253Z,7.53
2023-02-16T23:23:55.221Z,7.37
2023-02-16T23:26:25.084Z,7.50
2023-02-16T23:28:54.855Z,6.80
2023-02-16T23:31:23.362Z,6.37
2023-02-16T23:33:52.053Z,8.10
2023-02-16T23:36:20.280Z,6.83
2023-02-16T23:38:48.212Z,6.30
2023-02-16T23:41:17.653Z,6.60
2023-02-16T23:43:45.748Z,6.60
2023-02-16T23:46:13.837Z,6.27
2023-02-16T23:48:41.759Z,6.80
2023-02-16T23:51:12.005Z,6.53
2023-02-16T23:53:40.269Z,6.00
2023-02-16T23:56:09.823Z,6.67
